sensor_id;sensor_type;location;lat;lon;timestamp;P1;durP1;ratioP1;P2;durP2;ratioP2
25503;SDS011;13410;52.114;5.718;2023-05-10T00:01:08;24.10;;;16.48;;
25503;SDS011;13410;52.114;5.718;2023-05-10T00:03:33;23.50;;;15.88;;
25503;SDS011;13410;52.114;5.718;2023-05-10T00:05:59;26.05;;;16.70;;
25503;SDS011;13410;52.114;5.718;2023-05-10T00:08:25;24.40;;;16.55;;
25503;SDS011;13410;52.114;5.718;2023-05-10T00:10:50;29.55;;;18.55;;
25503;SDS011;13410;52.114;5.718;2023-05-10T00:13:16;27.67;;;17.13;;
25503;SDS011;13410;52.114;5.718;2023-05-10T00:15:42;27.63;;;18.33;;
25503;SDS011;13410;52.114;5.718;2023-05-10T00:18:07;28.27;;;18.60;;
25503;SDS011;13410;52.114;5.718;2023-05-10T00:20:33;31.00;;;18.58;;
25503;SDS011;13410;52.114;5.718;2023-05-10T00:22:59;32.08;;;19.77;;
25503;SDS011;13410;52.114;5.718;2023-05-10T00:25:24;32.17;;;20.10;;
25503;SDS011;13410;52.114;5.718;2023-05-10T00:27:50;31.10;;;19.75;;
25503;SDS011;13410;52.114;5.718;2023-05-10T00:30:15;33.55;;;20.92;;
25503;SDS011;13410;52.114;5.718;2023-05-10T00:32:41;34.13;;;20.50;;
25503;SDS011;13410;52.114;5.718;2023-05-10T00:35:07;37.45;;;22.27;;
25503;SDS011;13410;52.114;5.718;2023-05-10T00:37:33;39.65;;;21.55;;
25503;SDS011;13410;52.114;5.718;2023-05-10T00:39:58;39.92;;;22.05;;
25503;SDS011;13410;52.114;5.718;2023-05-10T00:42:24;38.17;;;21.38;;
25503;SDS011;13410;52.114;5.718;2023-05-10T00:44:50;38.83;;;22.85;;
25503;SDS011;13410;52.114;5.718;2023-05-10T00:47:16;44.90;;;23.58;;
25503;SDS011;13410;52.114;5.718;2023-05-10T00:49:42;45.03;;;24.23;;
25503;SDS011;13410;52.114;5.718;2023-05-10T00:52:08;49.58;;;26.15;;
25503;SDS011;13410;52.114;5.718;2023-05-10T00:54:34;46.22;;;24.17;;
25503;SDS011;13410;52.114;5.718;2023-05-10T00:57:00;43.80;;;23.42;;
25503;SDS011;13410;52.114;5.718;2023-05-10T00:59:26;49.30;;;25.05;;
25503;SDS011;13410;52.114;5.718;2023-05-10T01:01:52;52.33;;;25.65;;
25503;SDS011;13410;52.114;5.718;2023-05-10T01:04:18;51.10;;;27.05;;
25503;SDS011;13410;52.114;5.718;2023-05-10T01:06:46;52.50;;;27.33;;
25503;SDS011;13410;52.114;5.718;2023-05-10T01:09:12;50.63;;;26.15;;
25503;SDS011;13410;52.114;5.718;2023-05-10T01:11:38;50.67;;;27.23;;
25503;SDS011;13410;52.114;5.718;2023-05-10T01:14:05;54.17;;;27.17;;
25503;SDS011;13410;52.114;5.718;2023-05-10T01:16:32;58.10;;;29.70;;
25503;SDS011;13410;52.114;5.718;2023-05-10T01:19:02;55.17;;;28.77;;
25503;SDS011;13410;52.114;5.718;2023-05-10T01:21:53;55.80;;;27.77;;
25503;SDS011;13410;52.114;5.718;2023-05-10T01:24:49;54.00;;;26.90;;
25503;SDS011;13410;52.114;5.718;2023-05-10T01:27:41;56.67;;;28.55;;
25503;SDS011;13410;52.114;5.718;2023-05-10T01:33:35;58.20;;;29.30;;
25503;SDS011;13410;52.114;5.718;2023-05-10T01:36:26;56.35;;;28.35;;
25503;SDS011;13410;52.114;5.718;2023-05-10T01:39:05;63.38;;;30.75;;
25503;SDS011;13410;52.114;5.718;2023-05-10T01:47:06;63.10;;;31.17;;
25503;SDS011;13410;52.114;5.718;2023-05-10T01:49:37;61.35;;;28.85;;
25503;SDS011;13410;52.114;5.718;2023-05-10T01:52:08;70.05;;;31.40;;
25503;SDS011;13410;52.114;5.718;2023-05-10T01:54:38;65.45;;;31.15;;
25503;SDS011;13410;52.114;5.718;2023-05-10T01:57:09;65.65;;;32.03;;
25503;SDS011;13410;52.114;5.718;2023-05-10T01:59:39;66.88;;;31.27;;
25503;SDS011;13410;52.114;5.718;2023-05-10T02:02:07;61.13;;;30.00;;
25503;SDS011;13410;52.114;5.718;2023-05-10T02:04:38;72.00;;;33.05;;
25503;SDS011;13410;52.114;5.718;2023-05-10T02:07:05;70.10;;;32.45;;
25503;SDS011;13410;52.114;5.718;2023-05-10T02:09:32;68.32;;;32.35;;
25503;SDS011;13410;52.114;5.718;2023-05-10T02:11:59;70.10;;;33.67;;
25503;SDS011;13410;52.114;5.718;2023-05-10T02:14:27;68.05;;;32.50;;
25503;SDS011;13410;52.114;5.718;2023-05-10T02:16:55;67.22;;;32.22;;
25503;SDS011;13410;52.114;5.718;2023-05-10T02:19:26;69.20;;;33.13;;
25503;SDS011;13410;52.114;5.718;2023-05-10T02:21:55;66.82;;;32.35;;
25503;SDS011;13410;52.114;5.718;2023-05-10T02:24:22;71.38;;;31.83;;
25503;SDS011;13410;52.114;5.718;2023-05-10T02:26:53;70.33;;;33.33;;
25503;SDS011;13410;52.114;5.718;2023-05-10T02:29:20;65.18;;;31.48;;
25503;SDS011;13410;52.114;5.718;2023-05-10T02:31:49;69.22;;;33.55;;
25503;SDS011;13410;52.114;5.718;2023-05-10T02:34:18;70.38;;;32.45;;
25503;SDS011;13410;52.114;5.718;2023-05-10T02:36:46;70.50;;;32.42;;
25503;SDS011;13410;52.114;5.718;2023-05-10T02:39:13;68.07;;;30.90;;
25503;SDS011;13410;52.114;5.718;2023-05-10T02:41:40;70.15;;;31.60;;
25503;SDS011;13410;52.114;5.718;2023-05-10T02:44:07;64.70;;;31.50;;
25503;SDS011;13410;52.114;5.718;2023-05-10T02:46:34;66.70;;;31.75;;
25503;SDS011;13410;52.114;5.718;2023-05-10T02:49:00;63.63;;;30.70;;
25503;SDS011;13410;52.114;5.718;2023-05-10T02:51:27;62.92;;;30.73;;
25503;SDS011;13410;52.114;5.718;2023-05-10T02:53:56;67.93;;;32.20;;
25503;SDS011;13410;52.114;5.718;2023-05-10T02:56:30;67.25;;;31.65;;
25503;SDS011;13410;52.114;5.718;2023-05-10T02:58:59;64.13;;;30.02;;
25503;SDS011;13410;52.114;5.718;2023-05-10T03:01:25;66.22;;;31.70;;
25503;SDS011;13410;52.114;5.718;2023-05-10T03:03:50;65.00;;;30.75;;
25503;SDS011;13410;52.114;5.718;2023-05-10T03:06:16;65.90;;;30.80;;
25503;SDS011;13410;52.114;5.718;2023-05-10T03:08:42;66.60;;;31.13;;
25503;SDS011;13410;52.114;5.718;2023-05-10T03:11:12;68.15;;;31.33;;
25503;SDS011;13410;52.114;5.718;2023-05-10T03:16:38;65.93;;;30.30;;
25503;SDS011;13410;52.114;5.718;2023-05-10T03:19:14;66.53;;;30.52;;
25503;SDS011;13410;52.114;5.718;2023-05-10T03:21:47;68.60;;;31.27;;
25503;SDS011;13410;52.114;5.718;2023-05-10T03:24:16;62.83;;;29.50;;
25503;SDS011;13410;52.114;5.718;2023-05-10T03:26:46;63.28;;;30.42;;
25503;SDS011;13410;52.114;5.718;2023-05-10T03:29:13;65.85;;;30.70;;
25503;SDS011;13410;52.114;5.718;2023-05-10T03:31:40;64.40;;;30.75;;
25503;SDS011;13410;52.114;5.718;2023-05-10T03:34:06;64.95;;;30.23;;
25503;SDS011;13410;52.114;5.718;2023-05-10T03:36:32;68.00;;;30.75;;
25503;SDS011;13410;52.114;5.718;2023-05-10T03:38:57;66.60;;;32.15;;
25503;SDS011;13410;52.114;5.718;2023-05-10T03:41:23;65.20;;;30.38;;
25503;SDS011;13410;52.114;5.718;2023-05-10T03:43:50;69.07;;;31.05;;
25503;SDS011;13410;52.114;5.718;2023-05-10T03:46:16;71.50;;;31.40;;
25503;SDS011;13410;52.114;5.718;2023-05-10T03:48:41;76.95;;;31.50;;
25503;SDS011;13410;52.114;5.718;2023-05-10T03:51:07;71.53;;;31.20;;
25503;SDS011;13410;52.114;5.718;2023-05-10T03:53:32;70.65;;;31.38;;
25503;SDS011;13410;52.114;5.718;2023-05-10T03:55:58;74.78;;;31.40;;
25503;SDS011;13410;52.114;5.718;2023-05-10T03:58:24;71.60;;;30.95;;
25503;SDS011;13410;52.114;5.718;2023-05-10T04:00:50;82.75;;;32.97;;
25503;SDS011;13410;52.114;5.718;2023-05-10T04:03:16;76.15;;;31.83;;
25503;SDS011;13410;52.114;5.718;2023-05-10T04:05:42;80.32;;;33.10;;
25503;SDS011;13410;52.114;5.718;2023-05-10T04:08:08;85.63;;;32.80;;
25503;SDS011;13410;52.114;5.718;2023-05-10T04:10:33;82.18;;;32.40;;
25503;SDS011;13410;52.114;5.718;2023-05-10T04:12:59;90.05;;;34.63;;
25503;SDS011;13410;52.114;5.718;2023-05-10T04:15:25;94.90;;;34.38;;
25503;SDS011;13410;52.114;5.718;2023-05-10T04:17:50;95.10;;;34.85;;
25503;SDS011;13410;52.114;5.718;2023-05-10T04:20:16;101.88;;;36.90;;
25503;SDS011;13410;52.114;5.718;2023-05-10T04:22:42;94.60;;;35.78;;
25503;SDS011;13410;52.114;5.718;2023-05-10T04:25:07;100.43;;;39.72;;
25503;SDS011;13410;52.114;5.718;2023-05-10T04:27:33;96.65;;;36.85;;
25503;SDS011;13410;52.114;5.718;2023-05-10T04:29:59;94.53;;;33.95;;
25503;SDS011;13410;52.114;5.718;2023-05-10T04:32:25;96.88;;;37.15;;
25503;SDS011;13410;52.114;5.718;2023-05-10T04:34:50;96.57;;;35.90;;
25503;SDS011;13410;52.114;5.718;2023-05-10T04:37:17;97.60;;;34.80;;
25503;SDS011;13410;52.114;5.718;2023-05-10T04:39:43;95.78;;;34.17;;
25503;SDS011;13410;52.114;5.718;2023-05-10T04:42:08;92.03;;;33.17;;
25503;SDS011;13410;52.114;5.718;2023-05-10T04:44:34;94.65;;;34.83;;
25503;SDS011;13410;52.114;5.718;2023-05-10T04:47:00;93.47;;;32.42;;
25503;SDS011;13410;52.114;5.718;2023-05-10T04:49:27;89.05;;;32.50;;
25503;SDS011;13410;52.114;5.718;2023-05-10T04:51:53;86.00;;;31.10;;
25503;SDS011;13410;52.114;5.718;2023-05-10T04:54:18;83.43;;;31.05;;
25503;SDS011;13410;52.114;5.718;2023-05-10T04:56:44;91.90;;;31.00;;
25503;SDS011;13410;52.114;5.718;2023-05-10T04:59:09;89.32;;;32.20;;
25503;SDS011;13410;52.114;5.718;2023-05-10T05:01:35;99.50;;;32.20;;
25503;SDS011;13410;52.114;5.718;2023-05-10T05:04:01;88.55;;;31.70;;
25503;SDS011;13410;52.114;5.718;2023-05-10T05:06:26;83.50;;;31.38;;
25503;SDS011;13410;52.114;5.718;2023-05-10T05:08:52;83.10;;;31.38;;
25503;SDS011;13410;52.114;5.718;2023-05-10T05:11:17;84.68;;;30.90;;
25503;SDS011;13410;52.114;5.718;2023-05-10T05:13:43;84.43;;;31.33;;
25503;SDS011;13410;52.114;5.718;2023-05-10T05:16:09;86.10;;;31.98;;
25503;SDS011;13410;52.114;5.718;2023-05-10T05:18:35;80.78;;;31.17;;
25503;SDS011;13410;52.114;5.718;2023-05-10T05:21:01;76.07;;;30.75;;
25503;SDS011;13410;52.114;5.718;2023-05-10T05:23:27;71.00;;;29.13;;
25503;SDS011;13410;52.114;5.718;2023-05-10T05:25:53;74.25;;;29.38;;
25503;SDS011;13410;52.114;5.718;2023-05-10T05:28:19;76.68;;;29.38;;
25503;SDS011;13410;52.114;5.718;2023-05-10T05:30:46;81.00;;;29.25;;
25503;SDS011;13410;52.114;5.718;2023-05-10T05:33:15;69.65;;;28.60;;
25503;SDS011;13410;52.114;5.718;2023-05-10T05:35:41;71.50;;;28.55;;
25503;SDS011;13410;52.114;5.718;2023-05-10T05:38:07;78.13;;;28.92;;
25503;SDS011;13410;52.114;5.718;2023-05-10T05:40:33;73.30;;;27.45;;
25503;SDS011;13410;52.114;5.718;2023-05-10T05:42:59;79.38;;;29.17;;
25503;SDS011;13410;52.114;5.718;2023-05-10T05:45:24;84.68;;;30.80;;
25503;SDS011;13410;52.114;5.718;2023-05-10T05:47:50;74.20;;;29.52;;
25503;SDS011;13410;52.114;5.718;2023-05-10T05:50:15;84.18;;;31.58;;
25503;SDS011;13410;52.114;5.718;2023-05-10T05:52:41;83.63;;;31.20;;
25503;SDS011;13410;52.114;5.718;2023-05-10T05:55:07;84.82;;;31.40;;
25503;SDS011;13410;52.114;5.718;2023-05-10T05:57:32;87.30;;;31.40;;
25503;SDS011;13410;52.114;5.718;2023-05-10T05:59:58;81.95;;;30.40;;
25503;SDS011;13410;52.114;5.718;2023-05-10T06:02:24;86.97;;;31.58;;
25503;SDS011;13410;52.114;5.718;2023-05-10T06:04:50;91.88;;;31.92;;
25503;SDS011;13410;52.114;5.718;2023-05-10T06:07:15;88.38;;;32.53;;
25503;SDS011;13410;52.114;5.718;2023-05-10T06:09:41;92.07;;;33.75;;
25503;SDS011;13410;52.114;5.718;2023-05-10T06:12:06;86.78;;;31.98;;
25503;SDS011;13410;52.114;5.718;2023-05-10T06:14:32;89.70;;;32.63;;
25503;SDS011;13410;52.114;5.718;2023-05-10T06:16:58;89.55;;;33.92;;
25503;SDS011;13410;52.114;5.718;2023-05-10T06:19:24;96.57;;;35.42;;
25503;SDS011;13410;52.114;5.718;2023-05-10T06:21:51;101.70;;;35.30;;
25503;SDS011;13410;52.114;5.718;2023-05-10T06:24:16;96.22;;;34.50;;
25503;SDS011;13410;52.114;5.718;2023-05-10T06:26:42;90.57;;;34.22;;
25503;SDS011;13410;52.114;5.718;2023-05-10T06:29:08;90.97;;;33.38;;
25503;SDS011;13410;52.114;5.718;2023-05-10T06:31:33;92.32;;;34.05;;
25503;SDS011;13410;52.114;5.718;2023-05-10T06:33:59;92.10;;;33.15;;
25503;SDS011;13410;52.114;5.718;2023-05-10T06:36:24;92.53;;;32.45;;
25503;SDS011;13410;52.114;5.718;2023-05-10T06:38:51;85.82;;;29.95;;
25503;SDS011;13410;52.114;5.718;2023-05-10T06:41:16;94.53;;;33.85;;
25503;SDS011;13410;52.114;5.718;2023-05-10T06:43:42;95.07;;;32.38;;
25503;SDS011;13410;52.114;5.718;2023-05-10T06:46:08;90.97;;;33.50;;
25503;SDS011;13410;52.114;5.718;2023-05-10T06:48:33;94.70;;;32.78;;
25503;SDS011;13410;52.114;5.718;2023-05-10T06:50:59;87.72;;;31.40;;
25503;SDS011;13410;52.114;5.718;2023-05-10T06:53:25;84.90;;;31.48;;
25503;SDS011;13410;52.114;5.718;2023-05-10T06:55:50;81.20;;;30.85;;
25503;SDS011;13410;52.114;5.718;2023-05-10T06:58:16;90.78;;;31.35;;
25503;SDS011;13410;52.114;5.718;2023-05-10T07:00:41;90.63;;;32.03;;
25503;SDS011;13410;52.114;5.718;2023-05-10T07:03:09;92.65;;;32.80;;
25503;SDS011;13410;52.114;5.718;2023-05-10T07:05:35;89.18;;;33.72;;
25503;SDS011;13410;52.114;5.718;2023-05-10T07:08:00;88.70;;;33.53;;
25503;SDS011;13410;52.114;5.718;2023-05-10T07:10:26;82.55;;;31.67;;
25503;SDS011;13410;52.114;5.718;2023-05-10T07:12:52;81.97;;;31.88;;
25503;SDS011;13410;52.114;5.718;2023-05-10T07:15:17;74.03;;;30.48;;
25503;SDS011;13410;52.114;5.718;2023-05-10T07:17:43;72.68;;;31.27;;
25503;SDS011;13410;52.114;5.718;2023-05-10T07:20:08;65.68;;;29.20;;
25503;SDS011;13410;52.114;5.718;2023-05-10T07:22:34;62.90;;;29.33;;
25503;SDS011;13410;52.114;5.718;2023-05-10T07:25:00;66.68;;;30.00;;
25503;SDS011;13410;52.114;5.718;2023-05-10T07:27:26;56.67;;;28.55;;
25503;SDS011;13410;52.114;5.718;2023-05-10T07:29:51;59.53;;;28.08;;
25503;SDS011;13410;52.114;5.718;2023-05-10T07:32:17;53.72;;;25.95;;
25503;SDS011;13410;52.114;5.718;2023-05-10T07:34:42;52.72;;;26.52;;
25503;SDS011;13410;52.114;5.718;2023-05-10T07:37:08;55.05;;;25.05;;
25503;SDS011;13410;52.114;5.718;2023-05-10T07:39:33;45.45;;;22.80;;
25503;SDS011;13410;52.114;5.718;2023-05-10T07:41:59;48.85;;;23.65;;
25503;SDS011;13410;52.114;5.718;2023-05-10T07:44:24;41.67;;;20.27;;
25503;SDS011;13410;52.114;5.718;2023-05-10T07:46:50;37.15;;;19.05;;
25503;SDS011;13410;52.114;5.718;2023-05-10T07:49:17;36.58;;;19.17;;
25503;SDS011;13410;52.114;5.718;2023-05-10T07:51:42;34.45;;;18.52;;
25503;SDS011;13410;52.114;5.718;2023-05-10T07:54:08;34.70;;;18.88;;
25503;SDS011;13410;52.114;5.718;2023-05-10T07:56:33;32.58;;;17.98;;
25503;SDS011;13410;52.114;5.718;2023-05-10T07:59:00;32.00;;;17.15;;
25503;SDS011;13410;52.114;5.718;2023-05-10T08:01:26;30.85;;;16.90;;
25503;SDS011;13410;52.114;5.718;2023-05-10T08:03:54;28.33;;;15.77;;
25503;SDS011;13410;52.114;5.718;2023-05-10T08:06:20;30.83;;;16.38;;
25503;SDS011;13410;52.114;5.718;2023-05-10T08:08:46;32.33;;;16.15;;
25503;SDS011;13410;52.114;5.718;2023-05-10T08:11:16;29.90;;;15.90;;
25503;SDS011;13410;52.114;5.718;2023-05-10T08:13:43;28.45;;;16.10;;
25503;SDS011;13410;52.114;5.718;2023-05-10T08:16:09;27.50;;;15.45;;
25503;SDS011;13410;52.114;5.718;2023-05-10T08:18:34;20.77;;;13.05;;
25503;SDS011;13410;52.114;5.718;2023-05-10T08:21:00;22.88;;;13.23;;
25503;SDS011;13410;52.114;5.718;2023-05-10T08:23:26;19.15;;;12.32;;
25503;SDS011;13410;52.114;5.718;2023-05-10T08:25:51;21.83;;;12.30;;
25503;SDS011;13410;52.114;5.718;2023-05-10T08:28:17;18.92;;;12.52;;
25503;SDS011;13410;52.114;5.718;2023-05-10T08:30:42;23.77;;;13.18;;
25503;SDS011;13410;52.114;5.718;2023-05-10T08:33:08;22.13;;;12.77;;
25503;SDS011;13410;52.114;5.718;2023-05-10T08:35:34;17.67;;;11.02;;
25503;SDS011;13410;52.114;5.718;2023-05-10T08:38:00;16.52;;;11.30;;
25503;SDS011;13410;52.114;5.718;2023-05-10T08:40:26;17.98;;;10.68;;
25503;SDS011;13410;52.114;5.718;2023-05-10T08:43:11;18.48;;;10.48;;
25503;SDS011;13410;52.114;5.718;2023-05-10T08:45:40;18.58;;;11.20;;
25503;SDS011;13410;52.114;5.718;2023-05-10T08:48:10;17.02;;;11.10;;
25503;SDS011;13410;52.114;5.718;2023-05-10T08:50:37;16.10;;;10.60;;
25503;SDS011;13410;52.114;5.718;2023-05-10T08:53:05;15.75;;;10.50;;
25503;SDS011;13410;52.114;5.718;2023-05-10T08:58:02;17.55;;;11.20;;
25503;SDS011;13410;52.114;5.718;2023-05-10T09:00:28;18.77;;;11.80;;
25503;SDS011;13410;52.114;5.718;2023-05-10T09:02:55;19.27;;;12.05;;
25503;SDS011;13410;52.114;5.718;2023-05-10T09:05:22;18.00;;;11.73;;
25503;SDS011;13410;52.114;5.718;2023-05-10T09:07:47;18.08;;;11.77;;
25503;SDS011;13410;52.114;5.718;2023-05-10T09:10:13;20.88;;;10.90;;
25503;SDS011;13410;52.114;5.718;2023-05-10T09:12:40;15.82;;;10.63;;
25503;SDS011;13410;52.114;5.718;2023-05-10T09:15:06;18.55;;;10.48;;
25503;SDS011;13410;52.114;5.718;2023-05-10T09:17:34;13.98;;;9.38;;
25503;SDS011;13410;52.114;5.718;2023-05-10T09:20:00;15.43;;;10.45;;
25503;SDS011;13410;52.114;5.718;2023-05-10T09:22:26;17.08;;;11.25;;
25503;SDS011;13410;52.114;5.718;2023-05-10T09:25:10;18.55;;;12.10;;
25503;SDS011;13410;52.114;5.718;2023-05-10T09:27:40;18.40;;;11.95;;
25503;SDS011;13410;52.114;5.718;2023-05-10T09:30:10;16.50;;;11.57;;
25503;SDS011;13410;52.114;5.718;2023-05-10T09:32:41;17.85;;;12.57;;
25503;SDS011;13410;52.114;5.718;2023-05-10T09:35:12;18.55;;;13.02;;
25503;SDS011;13410;52.114;5.718;2023-05-10T09:37:43;21.80;;;13.52;;
25503;SDS011;13410;52.114;5.718;2023-05-10T09:40:11;20.27;;;13.45;;
25503;SDS011;13410;52.114;5.718;2023-05-10T09:42:42;22.83;;;14.88;;
25503;SDS011;13410;52.114;5.718;2023-05-10T09:45:15;21.73;;;13.88;;
25503;SDS011;13410;52.114;5.718;2023-05-10T09:47:40;19.05;;;12.68;;
25503;SDS011;13410;52.114;5.718;2023-05-10T09:50:06;19.10;;;12.48;;
25503;SDS011;13410;52.114;5.718;2023-05-10T09:55:24;19.90;;;13.23;;
25503;SDS011;13410;52.114;5.718;2023-05-10T09:58:06;20.08;;;13.02;;
25503;SDS011;13410;52.114;5.718;2023-05-10T10:00:35;20.55;;;13.48;;
25503;SDS011;13410;52.114;5.718;2023-05-10T10:03:03;21.45;;;13.35;;
25503;SDS011;13410;52.114;5.718;2023-05-10T10:05:33;19.83;;;13.05;;
25503;SDS011;13410;52.114;5.718;2023-05-10T10:08:00;21.70;;;13.30;;
25503;SDS011;13410;52.114;5.718;2023-05-10T10:10:29;19.95;;;13.52;;
25503;SDS011;13410;52.114;5.718;2023-05-10T10:12:56;18.13;;;12.63;;
25503;SDS011;13410;52.114;5.718;2023-05-10T10:15:23;17.27;;;12.32;;
25503;SDS011;13410;52.114;5.718;2023-05-10T10:17:49;18.58;;;12.57;;
25503;SDS011;13410;52.114;5.718;2023-05-10T10:20:16;17.42;;;12.00;;
25503;SDS011;13410;52.114;5.718;2023-05-10T10:22:42;14.57;;;11.10;;
25503;SDS011;13410;52.114;5.718;2023-05-10T10:25:09;16.02;;;10.75;;
25503;SDS011;13410;52.114;5.718;2023-05-10T10:32:59;18.08;;;9.25;;
25503;SDS011;13410;52.114;5.718;2023-05-10T10:35:43;11.32;;;8.30;;
25503;SDS011;13410;52.114;5.718;2023-05-10T10:38:11;11.85;;;8.40;;
25503;SDS011;13410;52.114;5.718;2023-05-10T10:40:38;13.68;;;8.40;;
25503;SDS011;13410;52.114;5.718;2023-05-10T10:43:23;11.80;;;8.75;;
25503;SDS011;13410;52.114;5.718;2023-05-10T10:46:23;9.23;;;8.05;;
25503;SDS011;13410;52.114;5.718;2023-05-10T10:48:49;10.13;;;7.53;;
25503;SDS011;13410;52.114;5.718;2023-05-10T10:51:32;10.52;;;7.50;;
25503;SDS011;13410;52.114;5.718;2023-05-10T10:54:11;10.00;;;7.18;;
25503;SDS011;13410;52.114;5.718;2023-05-10T10:56:37;8.18;;;6.75;;
25503;SDS011;13410;52.114;5.718;2023-05-10T10:59:03;11.27;;;6.55;;
25503;SDS011;13410;52.114;5.718;2023-05-10T11:01:34;7.90;;;5.78;;
25503;SDS011;13410;52.114;5.718;2023-05-10T11:06:32;8.07;;;5.82;;
25503;SDS011;13410;52.114;5.718;2023-05-10T11:09:08;10.43;;;6.47;;
25503;SDS011;13410;52.114;5.718;2023-05-10T11:11:36;12.18;;;6.90;;
25503;SDS011;13410;52.114;5.718;2023-05-10T11:14:13;11.02;;;7.03;;
25503;SDS011;13410;52.114;5.718;2023-05-10T11:16:42;10.25;;;7.43;;
25503;SDS011;13410;52.114;5.718;2023-05-10T11:19:09;10.20;;;7.13;;
25503;SDS011;13410;52.114;5.718;2023-05-10T11:24:16;10.18;;;7.22;;
25503;SDS011;13410;52.114;5.718;2023-05-10T11:26:43;8.63;;;7.03;;
25503;SDS011;13410;52.114;5.718;2023-05-10T11:29:08;9.55;;;6.60;;
25503;SDS011;13410;52.114;5.718;2023-05-10T11:31:34;10.32;;;6.97;;
25503;SDS011;13410;52.114;5.718;2023-05-10T11:34:06;9.27;;;6.28;;
25503;SDS011;13410;52.114;5.718;2023-05-10T11:36:33;8.60;;;6.32;;
25503;SDS011;13410;52.114;5.718;2023-05-10T11:39:00;9.40;;;6.38;;
25503;SDS011;13410;52.114;5.718;2023-05-10T11:41:27;10.15;;;6.32;;
25503;SDS011;13410;52.114;5.718;2023-05-10T11:43:54;11.15;;;7.40;;
25503;SDS011;13410;52.114;5.718;2023-05-10T11:46:21;9.15;;;7.15;;
25503;SDS011;13410;52.114;5.718;2023-05-10T11:48:49;10.20;;;7.00;;
25503;SDS011;13410;52.114;5.718;2023-05-10T11:51:19;12.63;;;7.50;;
25503;SDS011;13410;52.114;5.718;2023-05-10T11:53:46;9.00;;;7.00;;
25503;SDS011;13410;52.114;5.718;2023-05-10T11:56:11;8.25;;;6.93;;
25503;SDS011;13410;52.114;5.718;2023-05-10T11:58:38;11.10;;;8.13;;
25503;SDS011;13410;52.114;5.718;2023-05-10T12:01:04;12.52;;;8.00;;
25503;SDS011;13410;52.114;5.718;2023-05-10T12:03:32;9.32;;;7.07;;
25503;SDS011;13410;52.114;5.718;2023-05-10T12:05:59;10.80;;;7.15;;
25503;SDS011;13410;52.114;5.718;2023-05-10T12:08:26;10.35;;;7.68;;
25503;SDS011;13410;52.114;5.718;2023-05-10T12:10:53;11.15;;;7.38;;
25503;SDS011;13410;52.114;5.718;2023-05-10T12:13:28;11.23;;;7.70;;
25503;SDS011;13410;52.114;5.718;2023-05-10T12:15:54;9.98;;;7.32;;
25503;SDS011;13410;52.114;5.718;2023-05-10T12:18:23;9.90;;;7.55;;
25503;SDS011;13410;52.114;5.718;2023-05-10T12:20:51;9.63;;;7.30;;
25503;SDS011;13410;52.114;5.718;2023-05-10T12:23:18;8.95;;;7.18;;
25503;SDS011;13410;52.114;5.718;2023-05-10T12:25:45;8.60;;;6.70;;
25503;SDS011;13410;52.114;5.718;2023-05-10T12:28:11;9.63;;;7.38;;
25503;SDS011;13410;52.114;5.718;2023-05-10T12:30:37;11.60;;;7.10;;
25503;SDS011;13410;52.114;5.718;2023-05-10T12:33:10;10.60;;;7.00;;
25503;SDS011;13410;52.114;5.718;2023-05-10T12:35:44;11.02;;;7.70;;
25503;SDS011;13410;52.114;5.718;2023-05-10T12:38:26;10.20;;;7.53;;
25503;SDS011;13410;52.114;5.718;2023-05-10T12:40:58;12.02;;;8.20;;
25503;SDS011;13410;52.114;5.718;2023-05-10T12:43:26;13.32;;;7.85;;
25503;SDS011;13410;52.114;5.718;2023-05-10T12:45:52;10.02;;;7.43;;
25503;SDS011;13410;52.114;5.718;2023-05-10T12:48:18;11.80;;;7.20;;
25503;SDS011;13410;52.114;5.718;2023-05-10T12:50:43;10.63;;;6.65;;
25503;SDS011;13410;52.114;5.718;2023-05-10T12:53:09;10.63;;;6.97;;
25503;SDS011;13410;52.114;5.718;2023-05-10T12:55:34;10.40;;;6.20;;
25503;SDS011;13410;52.114;5.718;2023-05-10T12:58:00;10.07;;;6.53;;
25503;SDS011;13410;52.114;5.718;2023-05-10T13:00:26;8.20;;;6.05;;
25503;SDS011;13410;52.114;5.718;2023-05-10T13:02:51;8.85;;;5.95;;
25503;SDS011;13410;52.114;5.718;2023-05-10T13:05:18;7.43;;;5.55;;
25503;SDS011;13410;52.114;5.718;2023-05-10T13:07:43;8.85;;;6.30;;
25503;SDS011;13410;52.114;5.718;2023-05-10T13:10:09;7.50;;;5.75;;
25503;SDS011;13410;52.114;5.718;2023-05-10T13:12:35;7.22;;;5.20;;
25503;SDS011;13410;52.114;5.718;2023-05-10T13:15:01;6.60;;;5.22;;
25503;SDS011;13410;52.114;5.718;2023-05-10T13:17:27;8.95;;;5.93;;
25503;SDS011;13410;52.114;5.718;2023-05-10T13:19:53;7.40;;;5.60;;
25503;SDS011;13410;52.114;5.718;2023-05-10T13:22:19;8.55;;;6.00;;
25503;SDS011;13410;52.114;5.718;2023-05-10T13:24:45;7.32;;;5.22;;
25503;SDS011;13410;52.114;5.718;2023-05-10T13:27:10;6.95;;;4.68;;
25503;SDS011;13410;52.114;5.718;2023-05-10T13:29:36;6.10;;;4.80;;
25503;SDS011;13410;52.114;5.718;2023-05-10T13:32:01;8.77;;;5.82;;
25503;SDS011;13410;52.114;5.718;2023-05-10T13:34:27;7.22;;;5.70;;
25503;SDS011;13410;52.114;5.718;2023-05-10T13:36:53;8.52;;;5.80;;
25503;SDS011;13410;52.114;5.718;2023-05-10T13:39:19;8.77;;;5.00;;
25503;SDS011;13410;52.114;5.718;2023-05-10T13:41:47;7.82;;;4.97;;
25503;SDS011;13410;52.114;5.718;2023-05-10T13:44:13;8.30;;;4.72;;
25503;SDS011;13410;52.114;5.718;2023-05-10T13:46:41;8.10;;;5.68;;
25503;SDS011;13410;52.114;5.718;2023-05-10T13:49:08;8.20;;;5.45;;
25503;SDS011;13410;52.114;5.718;2023-05-10T13:51:34;8.23;;;5.40;;
25503;SDS011;13410;52.114;5.718;2023-05-10T13:54:00;7.70;;;5.28;;
25503;SDS011;13410;52.114;5.718;2023-05-10T13:56:29;8.13;;;5.45;;
25503;SDS011;13410;52.114;5.718;2023-05-10T13:58:56;7.55;;;4.93;;
25503;SDS011;13410;52.114;5.718;2023-05-10T14:01:22;7.00;;;4.40;;
25503;SDS011;13410;52.114;5.718;2023-05-10T14:03:48;7.35;;;4.45;;
25503;SDS011;13410;52.114;5.718;2023-05-10T14:06:13;8.35;;;5.38;;
25503;SDS011;13410;52.114;5.718;2023-05-10T14:08:39;9.85;;;6.45;;
25503;SDS011;13410;52.114;5.718;2023-05-10T14:11:05;6.93;;;6.00;;
25503;SDS011;13410;52.114;5.718;2023-05-10T14:13:32;8.98;;;6.13;;
25503;SDS011;13410;52.114;5.718;2023-05-10T14:15:57;6.32;;;5.20;;
25503;SDS011;13410;52.114;5.718;2023-05-10T14:18:25;6.93;;;4.40;;
25503;SDS011;13410;52.114;5.718;2023-05-10T14:20:54;6.25;;;4.00;;
25503;SDS011;13410;52.114;5.718;2023-05-10T14:23:21;4.45;;;3.53;;
25503;SDS011;13410;52.114;5.718;2023-05-10T14:25:49;5.75;;;3.63;;
25503;SDS011;13410;52.114;5.718;2023-05-10T14:28:15;4.85;;;3.30;;
25503;SDS011;13410;52.114;5.718;2023-05-10T14:30:42;8.02;;;3.95;;
25503;SDS011;13410;52.114;5.718;2023-05-10T14:33:08;7.35;;;4.80;;
25503;SDS011;13410;52.114;5.718;2023-05-10T14:35:33;8.18;;;5.45;;
25503;SDS011;13410;52.114;5.718;2023-05-10T14:37:59;8.02;;;4.90;;
25503;SDS011;13410;52.114;5.718;2023-05-10T14:40:24;8.00;;;4.50;;
25503;SDS011;13410;52.114;5.718;2023-05-10T14:42:50;7.22;;;4.78;;
25503;SDS011;13410;52.114;5.718;2023-05-10T14:45:17;7.80;;;4.53;;
25503;SDS011;13410;52.114;5.718;2023-05-10T14:47:44;6.60;;;4.40;;
25503;SDS011;13410;52.114;5.718;2023-05-10T14:50:09;6.60;;;4.35;;
25503;SDS011;13410;52.114;5.718;2023-05-10T14:52:35;7.10;;;4.28;;
25503;SDS011;13410;52.114;5.718;2023-05-10T14:55:01;7.20;;;4.90;;
25503;SDS011;13410;52.114;5.718;2023-05-10T14:57:27;7.25;;;4.80;;